Time;durP1;ratioP1;P1;durP2;ratioP2;P2;SDS_P1;SDS_P2;PMS_P1;PMS_P2;Temp;Humidity;BMP_temperature;BMP_pressure;BME280_temperature;BME280_humidity;BME280_pressure;Samples;Min_cycle;Max_cycle;Signal;HPM_P1;HPM_P2
2023/07/30 00:00:24;;;;;;;5.72;2.33;;;;;;;20.01;61.01;99098.66;5011632;28;20618;-75
2023/07/30 00:02:50;;;;;;;6.90;2.05;;;;;;;19.98;60.64;99095.44;4992642;28;20410;-75
2023/07/30 00:05:18;;;;;;;4.75;1.80;;;;;;;19.93;60.50;99095.94;4991817;28;20064;-76
2023/07/30 00:07:44;;;;;;;7.47;2.28;;;;;;;19.89;60.78;99097.28;4991641;28;20054;-76
2023/07/30 00:10:11;;;;;;;3.92;2.10;;;;;;;19.84;60.58;99100.44;4991853;28;20121;-75
2023/07/30 00:12:38;;;;;;;5.80;2.35;;;;;;;19.79;60.36;99100.09;4991712;28;20050;-75
2023/07/30 00:15:05;;;;;;;5.53;2.00;;;;;;;19.75;60.76;99096.06;5008139;28;20077;-75
2023/07/30 00:17:32;;;;;;;5.70;2.40;;;;;;;19.72;60.62;99107.06;5011577;28;20066;-74
2023/07/30 00:19:58;;;;;;;8.13;2.22;;;;;;;19.66;60.62;99106.72;5011187;28;20057;-75
2023/07/30 00:22:25;;;;;;;2.72;1.77;;;;;;;19.64;60.48;99106.06;5011212;28;20661;-75
2023/07/30 00:24:52;;;;;;;5.10;2.10;;;;;;;19.62;60.68;99102.72;5010497;28;20054;-76
2023/07/30 00:27:19;;;;;;;5.13;2.28;;;;;;;19.59;60.03;99115.56;5003280;28;20141;-75
2023/07/30 00:29:49;;;;;;;5.95;2.00;;;;;;;19.56;60.24;99110.53;4991919;28;20066;-75
2023/07/30 00:32:16;;;;;;;5.03;1.90;;;;;;;19.52;60.02;99115.38;4991744;28;20050;-75
2023/07/30 00:34:43;;;;;;;7.35;2.15;;;;;;;19.48;59.97;99114.03;4991890;28;20050;-75
2023/07/30 00:37:10;;;;;;;7.57;2.00;;;;;;;19.45;59.87;99103.66;5002243;28;20410;-76
2023/07/30 00:39:37;;;;;;;5.43;2.13;;;;;;;19.41;60.08;99105.84;4996286;28;20073;-76
2023/07/30 00:42:04;;;;;;;7.72;2.03;;;;;;;19.37;60.31;99107.97;4991236;28;20050;-74
2023/07/30 00:44:30;;;;;;;4.28;1.88;;;;;;;19.35;59.88;99117.97;4994630;28;20054;-75
2023/07/30 00:46:57;;;;;;;4.22;2.35;;;;;;;19.32;60.10;99107.63;5013177;28;20057;-76
2023/07/30 00:49:23;;;;;;;6.25;2.35;;;;;;;19.29;59.98;99107.97;5015541;28;20434;-75
2023/07/30 00:51:50;;;;;;;4.10;2.22;;;;;;;19.26;59.74;99113.59;5014995;28;20058;-76
2023/07/30 00:54:17;;;;;;;9.70;2.13;;;;;;;19.21;60.04;99105.25;5014913;28;20735;-75
2023/07/30 00:56:51;;;;;;;5.63;2.30;;;;;;;19.16;60.08;99108.38;4995650;28;20132;-75
2023/07/30 00:59:20;;;;;;;7.80;1.85;;;;;;;19.14;60.05;99097.88;5003463;28;20120;-75
2023/07/30 01:01:47;;;;;;;14.05;2.75;;;;;;;19.12;60.26;99102.53;4997446;28;20049;-76
2023/07/30 01:04:15;;;;;;;10.80;2.63;;;;;;;19.08;60.07;99106.53;5014737;28;20254;-75
2023/07/30 01:06:43;;;;;;;8.60;2.63;;;;;;;19.06;60.26;99107.69;5014550;28;20050;-75
2023/07/30 01:09:11;;;;;;;6.45;2.15;;;;;;;19.04;60.26;99107.81;5010828;28;20050;-75
2023/07/30 01:11:39;;;;;;;9.50;2.50;;;;;;;19.01;60.11;99103.63;4995179;28;20054;-75
2023/07/30 01:14:08;;;;;;;5.97;2.50;;;;;;;19.01;60.23;99110.78;4994951;28;20062;-75
2023/07/30 01:16:34;;;;;;;6.68;2.65;;;;;;;19.00;60.21;99112.59;4994782;28;20073;-76
2023/07/30 01:19:04;;;;;;;5.60;2.28;;;;;;;18.98;60.25;99114.59;4994867;28;20052;-75
2023/07/30 01:21:33;;;;;;;8.70;2.67;;;;;;;18.96;59.91;99116.59;4994653;28;20054;-76
2023/07/30 01:23:59;;;;;;;10.07;2.70;;;;;;;18.96;59.97;99115.75;4994719;28;20450;-75
2023/07/30 01:26:41;;;;;;;7.03;2.95;;;;;;;18.89;60.72;99123.56;4994789;28;20054;-75
2023/07/30 01:29:14;;;;;;;9.27;2.85;;;;;;;18.89;60.48;99126.22;4994786;28;20058;-75
2023/07/30 01:31:43;;;;;;;4.03;2.42;;;;;;;18.88;60.22;99130.69;5012886;28;20054;-76
2023/07/30 01:34:12;;;;;;;6.88;2.42;;;;;;;18.87;60.25;99137.03;5014346;28;20050;-75
2023/07/30 01:36:39;;;;;;;8.85;2.60;;;;;;;18.85;60.26;99128.38;5013993;28;20068;-74
2023/07/30 01:39:08;;;;;;;8.85;2.78;;;;;;;18.83;60.69;99135.69;5012722;28;20049;-75
2023/07/30 01:41:35;;;;;;;8.43;3.05;;;;;;;18.83;60.37;99140.16;5013899;28;20089;-75
2023/07/30 01:44:02;;;;;;;5.95;2.95;;;;;;;18.80;60.42;99135.97;5014046;28;20045;-76
2023/07/30 01:46:28;;;;;;;12.55;2.80;;;;;;;18.79;60.73;99139.66;5013690;28;20042;-75
2023/07/30 01:48:55;;;;;;;5.38;2.67;;;;;;;18.78;60.40;99140.66;5009235;28;20088;-75
2023/07/30 01:51:22;;;;;;;7.22;3.10;;;;;;;18.77;60.43;99138.97;4994392;28;20102;-75
2023/07/30 01:53:48;;;;;;;7.63;3.15;;;;;;;18.77;60.75;99141.66;4994396;28;20061;-76
2023/07/30 01:56:15;;;;;;;9.27;2.90;;;;;;;18.76;60.76;99142.63;4994150;28;20054;-76
2023/07/30 01:58:42;;;;;;;6.15;2.50;;;;;;;18.74;60.80;99142.81;4992741;28;20047;-76
2023/07/30 02:01:09;;;;;;;8.77;2.78;;;;;;;18.73;60.70;99149.09;5009100;28;20101;-75
2023/07/30 02:03:35;;;;;;;5.35;2.83;;;;;;;18.72;60.97;99146.59;5000686;28;20038;-75
2023/07/30 02:06:02;;;;;;;6.88;3.35;;;;;;;18.70;60.78;99149.44;5013395;28;20145;-76
2023/07/30 02:08:29;;;;;;;7.88;3.20;;;;;;;18.68;60.84;99150.56;5085972;23;20504;-79
2023/07/30 02:10:59;;;;;;;10.20;3.10;;;;;;;18.66;61.38;99144.56;4994301;28;20129;-80
2023/07/30 02:13:25;;;;;;;9.32;3.88;;;;;;;18.65;61.28;99149.03;4994620;28;20133;-79
2023/07/30 02:15:52;;;;;;;16.42;3.25;;;;;;;18.65;61.33;99145.56;4994002;28;20056;-80
2023/07/30 02:18:19;;;;;;;11.60;3.47;;;;;;;18.63;61.24;99145.72;4976680;28;20100;-80
2023/07/30 02:20:45;;;;;;;6.85;3.33;;;;;;;18.62;61.18;99144.84;4994049;28;20054;-80
2023/07/30 02:23:14;;;;;;;6.20;3.20;;;;;;;18.61;61.38;99142.34;4994062;28;20141;-79
2023/07/30 02:25:40;;;;;;;7.88;3.35;;;;;;;18.60;60.96;99141.53;4993294;28;20129;-79
2023/07/30 02:28:07;;;;;;;9.48;2.95;;;;;;;18.59;61.02;99134.53;4975825;28;20484;-79
2023/07/30 02:30:34;;;;;;;8.73;3.45;;;;;;;18.58;61.29;99143.50;4993035;28;20053;-79
2023/07/30 02:33:01;;;;;;;9.45;3.30;;;;;;;18.57;61.25;99143.63;4993426;28;20086;-79
2023/07/30 02:35:27;;;;;;;8.18;3.30;;;;;;;18.56;61.14;99145.50;4993100;28;20054;-79
2023/07/30 02:37:54;;;;;;;6.45;2.85;;;;;;;18.55;60.93;99143.81;4975706;28;20137;-79
2023/07/30 02:40:20;;;;;;;9.25;3.38;;;;;;;18.55;61.21;99148.31;4992981;28;20082;-79
2023/07/30 02:42:47;;;;;;;5.82;2.90;;;;;;;18.54;60.85;99135.97;4992996;28;20108;-80
2023/07/30 02:45:13;;;;;;;8.98;2.83;;;;;;;18.53;61.03;99139.59;4992882;28;20058;-80
2023/07/30 02:47:40;;;;;;;6.38;3.03;;;;;;;18.51;61.03;99137.13;4975798;28;20061;-79
2023/07/30 02:50:08;;;;;;;9.90;3.20;;;;;;;18.48;61.00;99138.28;4992941;28;20058;-80
2023/07/30 02:52:35;;;;;;;9.07;3.28;;;;;;;18.47;60.63;99136.56;4992932;28;20056;-79
2023/07/30 02:55:01;;;;;;;6.50;2.88;;;;;;;18.46;60.98;99136.72;4992750;28;20137;-79
2023/07/30 02:57:28;;;;;;;7.07;2.55;;;;;;;18.44;60.80;99139.56;4992766;28;20109;-79
2023/07/30 02:59:54;;;;;;;8.02;3.03;;;;;;;18.41;61.11;99131.03;4992427;28;20121;-80
2023/07/30 03:02:20;;;;;;;9.65;3.13;;;;;;;18.41;60.83;99139.03;4975440;28;20412;-80
2023/07/30 03:04:47;;;;;;;5.53;3.22;;;;;;;18.40;60.87;99135.53;4975240;28;20684;-79
2023/07/30 03:07:14;;;;;;;11.68;3.00;;;;;;;18.40;60.83;99145.34;4992500;28;20141;-79
2023/07/30 03:09:40;;;;;;;9.45;3.53;;;;;;;18.37;60.81;99141.16;4991984;28;20482;-79
2023/07/30 03:12:07;;;;;;;7.18;3.05;;;;;;;18.37;61.13;99141.16;4992519;28;20101;-79
2023/07/30 03:14:33;;;;;;;8.90;3.35;;;;;;;18.35;60.80;99148.47;4992552;28;20407;-79
2023/07/30 03:17:00;;;;;;;6.82;3.13;;;;;;;18.33;60.79;99143.31;4975012;28;20060;-79
2023/07/30 03:19:26;;;;;;;7.75;3.28;;;;;;;18.31;60.93;99147.94;4974880;28;20497;-79
2023/07/30 03:21:53;;;;;;;8.85;3.15;;;;;;;18.29;60.86;99144.59;4991712;28;20065;-80
2023/07/30 03:24:19;;;;;;;8.57;3.70;;;;;;;18.26;60.65;99139.56;4974786;28;20050;-79
2023/07/30 03:26:45;;;;;;;8.35;3.70;;;;;;;18.25;61.33;99147.72;4991853;28;20137;-79
2023/07/30 03:29:12;;;;;;;13.23;3.70;;;;;;;18.24;61.14;99152.19;4992408;28;20137;-79
2023/07/30 03:31:38;;;;;;;11.70;3.13;;;;;;;18.23;61.29;99145.19;4992031;28;20049;-79
2023/07/30 03:34:05;;;;;;;5.53;3.22;;;;;;;18.23;61.11;99150.53;4975026;28;20054;-80
2023/07/30 03:36:32;;;;;;;9.48;3.28;;;;;;;18.23;61.49;99148.72;4991875;28;20096;-79
2023/07/30 03:38:59;;;;;;;7.43;2.72;;;;;;;18.26;61.56;99141.41;4992050;28;20133;-79
2023/07/30 03:41:25;;;;;;;9.85;3.13;;;;;;;18.27;62.11;99135.91;4974313;28;20573;-79
2023/07/30 03:43:51;;;;;;;7.88;3.03;;;;;;;18.28;61.95;99140.25;4992202;28;20058;-79
2023/07/30 03:46:18;;;;;;;5.50;3.40;;;;;;;18.30;61.79;99137.44;4991860;28;20050;-79
2023/07/30 03:48:44;;;;;;;8.85;3.10;;;;;;;18.30;61.80;99140.09;4991849;28;20125;-79
2023/07/30 03:51:11;;;;;;;6.38;3.28;;;;;;;18.31;61.94;99137.28;4991624;28;20072;-79
2023/07/30 03:53:37;;;;;;;5.60;3.22;;;;;;;18.32;61.89;99141.63;4991870;28;20061;-79
2023/07/30 03:56:04;;;;;;;10.15;3.65;;;;;;;18.33;61.30;99139.81;4991760;28;20050;-79
2023/07/30 03:58:30;;;;;;;7.07;3.20;;;;;;;18.32;61.40;99141.63;4991559;28;20517;-79
2023/07/30 04:00:57;;;;;;;8.23;3.78;;;;;;;18.33;61.47;99145.13;4991561;28;20457;-79
2023/07/30 04:03:23;;;;;;;6.53;3.00;;;;;;;18.31;61.72;99139.94;4972324;28;20054;-79
2023/07/30 04:05:50;;;;;;;10.50;3.53;;;;;;;18.29;61.65;99141.94;4972330;28;20105;-79
2023/07/30 04:08:16;;;;;;;6.88;3.72;;;;;;;18.29;61.44;99149.09;4971792;28;20058;-79
2023/07/30 04:10:43;;;;;;;9.10;3.30;;;;;;;18.27;61.37;99149.25;4972312;28;20051;-79
2023/07/30 04:13:09;;;;;;;9.10;3.97;;;;;;;18.24;61.37;99152.19;4987511;28;20050;-79
2023/07/30 04:15:36;;;;;;;7.13;3.15;;;;;;;18.22;61.72;99147.06;4991607;28;20050;-79
2023/07/30 04:18:02;;;;;;;12.25;3.40;;;;;;;18.19;61.74;99147.34;4991440;28;20068;-79
2023/07/30 04:20:29;;;;;;;8.38;3.28;;;;;;;18.16;61.50;99147.63;4990703;28;20061;-78
2023/07/30 04:22:55;;;;;;;8.25;3.20;;;;;;;18.14;61.41;99143.47;4991048;28;20046;-79
2023/07/30 04:25:21;;;;;;;9.23;3.40;;;;;;;18.13;61.85;99139.94;4991204;28;20531;-78
2023/07/30 04:27:48;;;;;;;5.80;3.50;;;;;;;18.12;62.08;99148.13;4991268;28;20064;-79
2023/07/30 04:30:14;;;;;;;7.60;3.42;;;;;;;18.11;62.08;99155.25;4991416;28;20058;-79
2023/07/30 04:32:41;;;;;;;6.43;3.00;;;;;;;18.13;62.32;99155.09;4990931;28;20535;-78
2023/07/30 04:35:08;;;;;;;6.25;3.22;;;;;;;18.14;62.08;99151.44;4991167;28;20141;-79
2023/07/30 04:37:34;;;;;;;10.50;3.25;;;;;;;18.17;62.29;99151.16;4990920;28;20194;-79
2023/07/30 04:40:00;;;;;;;5.57;3.00;;;;;;;18.18;62.49;99156.31;4991543;28;20058;-79
2023/07/30 04:42:27;;;;;;;8.52;3.17;;;;;;;18.20;62.51;99158.81;4991080;28;20043;-79
2023/07/30 04:44:53;;;;;;;9.35;3.47;;;;;;;18.22;62.71;99160.38;4973345;28;20058;-79
2023/07/30 04:47:20;;;;;;;10.20;3.38;;;;;;;18.24;62.62;99160.19;4990650;28;20065;-79
2023/07/30 04:49:46;;;;;;;11.10;3.67;;;;;;;18.26;62.86;99160.03;4991045;28;20054;-78
2023/07/30 04:52:13;;;;;;;7.82;3.40;;;;;;;18.31;62.77;99160.41;4973900;28;20082;-78
2023/07/30 04:54:39;;;;;;;8.18;3.25;;;;;;;18.33;62.60;99161.97;4991238;28;20142;-79
2023/07/30 04:57:06;;;;;;;7.25;3.20;;;;;;;18.38;62.66;99158.00;4991146;28;20069;-78
2023/07/30 04:59:33;;;;;;;8.05;3.67;;;;;;;18.40;62.82;99159.53;4990665;28;20056;-79
2023/07/30 05:02:00;;;;;;;6.30;3.22;;;;;;;18.44;62.43;99157.38;4973850;28;22013;-78
2023/07/30 05:04:27;;;;;;;8.25;3.22;;;;;;;18.46;62.77;99158.91;4990943;28;20080;-79
2023/07/30 05:06:53;;;;;;;8.07;3.58;;;;;;;18.47;62.50;99157.91;4973205;28;20497;-79
2023/07/30 05:09:20;;;;;;;8.75;3.35;;;;;;;18.49;62.44;99160.41;4990722;28;20053;-79
2023/07/30 05:11:46;;;;;;;12.38;3.47;;;;;;;18.51;62.21;99161.13;4991061;28;20054;-79
2023/07/30 05:14:13;;;;;;;6.88;3.72;;;;;;;18.50;62.11;99164.75;4990805;28;20054;-79
2023/07/30 05:16:39;;;;;;;4.80;2.85;;;;;;;18.51;62.34;99163.78;4990653;28;20497;-79
2023/07/30 05:19:06;;;;;;;7.30;3.00;;;;;;;18.52;62.40;99160.13;4990589;28;20057;-79
2023/07/30 05:21:32;;;;;;;7.60;3.42;;;;;;;18.56;62.88;99166.81;4973463;28;20072;-79
2023/07/30 05:23:58;;;;;;;8.55;3.50;;;;;;;18.58;62.46;99164.81;4990903;28;20050;-79
2023/07/30 05:26:25;;;;;;;6.53;3.30;;;;;;;18.60;62.40;99164.66;4990902;28;20069;-79
2023/07/30 05:28:51;;;;;;;9.95;3.17;;;;;;;18.62;62.19;99171.50;4990648;28;20060;-79
2023/07/30 05:31:18;;;;;;;5.72;2.92;;;;;;;18.64;62.34;99175.88;4990635;28;20765;-79
2023/07/30 05:33:44;;;;;;;8.50;3.65;;;;;;;18.65;62.16;99177.53;4994379;28;20452;-78
2023/07/30 05:36:11;;;;;;;5.35;2.92;;;;;;;18.67;62.16;99181.72;4994482;28;20165;-79
2023/07/30 05:38:37;;;;;;;8.65;3.40;;;;;;;18.67;62.08;99176.41;4994279;28;20053;-78
2023/07/30 05:41:03;;;;;;;8.75;3.60;;;;;;;18.67;62.18;99176.41;4994188;28;20058;-78
2023/07/30 05:43:30;;;;;;;10.80;3.80;;;;;;;18.68;62.00;99174.53;4994101;28;20511;-78
2023/07/30 05:45:56;;;;;;;13.02;3.97;;;;;;;18.67;62.12;99180.88;4993975;28;20056;-79
2023/07/30 05:48:23;;;;;;;11.55;3.63;;;;;;;18.67;62.05;99183.53;4976180;28;20058;-83
2023/07/30 05:50:49;;;;;;;8.98;3.80;;;;;;;18.65;61.78;99186.34;4993168;28;20057;-79
2023/07/30 05:53:18;;;;;;;6.90;3.50;;;;;;;18.65;62.09;99174.88;4993688;28;20050;-79
2023/07/30 05:55:45;;;;;;;13.23;4.25;;;;;;;18.62;61.87;99176.84;4993381;28;20137;-79
2023/07/30 05:58:12;;;;;;;9.00;4.60;;;;;;;18.62;62.09;99178.69;4993333;28;20142;-79
2023/07/30 06:00:38;;;;;;;12.18;4.47;;;;;;;18.61;62.07;99180.50;4993531;28;20129;-79
2023/07/30 06:03:06;;;;;;;10.48;4.57;;;;;;;18.62;62.31;99179.50;4992785;28;20081;-79
2023/07/30 06:05:32;;;;;;;11.48;5.10;;;;;;;18.62;62.42;99190.16;4976077;28;20058;-80
2023/07/30 06:07:59;;;;;;;10.68;4.65;;;;;;;18.63;62.28;99193.69;4975390;28;20050;-79
2023/07/30 06:10:25;;;;;;;13.55;5.88;;;;;;;18.65;62.97;99193.53;4976254;28;20145;-79
2023/07/30 06:12:52;;;;;;;11.60;5.75;;;;;;;18.66;62.37;99181.88;4993327;28;20080;-79
2023/07/30 06:15:18;;;;;;;16.02;5.70;;;;;;;18.67;62.61;99188.88;4992910;28;20062;-79
2023/07/30 06:17:45;;;;;;;14.32;6.30;;;;;;;18.67;62.47;99196.88;4992968;28;20052;-79
2023/07/30 06:20:11;;;;;;;16.63;6.03;;;;;;;18.68;62.79;99194.06;4993161;28;20054;-79
2023/07/30 06:22:38;;;;;;;17.60;6.40;;;;;;;18.68;62.69;99194.06;4992910;28;20264;-79
2023/07/30 06:25:05;;;;;;;12.20;6.05;;;;;;;18.69;62.89;99197.56;4992862;28;20072;-80
2023/07/30 06:27:31;;;;;;;12.45;5.82;;;;;;;18.70;62.99;99202.75;4992808;28;20058;-79
2023/07/30 06:29:57;;;;;;;15.63;6.28;;;;;;;18.71;63.56;99206.25;4993050;28;20429;-80
2023/07/30 06:32:24;;;;;;;13.73;6.15;;;;;;;18.74;63.20;99205.94;4975363;28;20086;-79
2023/07/30 06:34:51;;;;;;;16.63;6.82;;;;;;;18.76;63.04;99209.28;4993074;28;20058;-79
2023/07/30 06:37:17;;;;;;;22.20;7.10;;;;;;;18.77;62.90;99210.13;4992938;28;20058;-79
2023/07/30 06:39:43;;;;;;;22.63;7.68;;;;;;;18.78;63.07;99215.31;4993142;28;20429;-79
2023/07/30 06:42:10;;;;;;;19.23;7.10;;;;;;;18.80;63.07;99212.47;4975194;28;20064;-79
2023/07/30 06:44:36;;;;;;;15.07;6.75;;;;;;;18.80;63.22;99215.16;4991632;28;20057;-79
2023/07/30 06:47:03;;;;;;;20.73;7.40;;;;;;;18.80;63.32;99213.31;4974919;28;20054;-79
2023/07/30 06:49:30;;;;;;;20.70;7.53;;;;;;;18.80;63.34;99215.97;4992742;28;20054;-79
2023/07/30 06:51:56;;;;;;;18.95;8.50;;;;;;;18.83;63.45;99221.00;4992734;28;20087;-79
2023/07/30 06:54:22;;;;;;;17.23;7.75;;;;;;;18.85;63.91;99224.38;4992371;28;20089;-79
2023/07/30 06:56:49;;;;;;;19.15;8.48;;;;;;;18.86;63.88;99231.38;4992369;28;20050;-79
2023/07/30 06:59:15;;;;;;;23.15;7.53;;;;;;;18.91;63.49;99230.06;4974914;28;20060;-79
2023/07/30 07:01:42;;;;;;;17.08;7.88;;;;;;;18.93;63.47;99239.59;4992645;28;20138;-79
2023/07/30 07:04:09;;;;;;;23.40;9.35;;;;;;;18.95;63.76;99237.59;4974991;28;20085;-80
2023/07/30 07:06:35;;;;;;;19.23;8.10;;;;;;;18.96;63.52;99233.09;4992294;28;20418;-79
2023/07/30 07:09:02;;;;;;;20.60;9.02;;;;;;;18.99;63.91;99230.13;4992090;28;20285;-79
2023/07/30 07:11:28;;;;;;;23.05;8.43;;;;;;;19.02;64.11;99227.97;4992395;28;20054;-79
2023/07/30 07:13:55;;;;;;;21.40;8.55;;;;;;;19.06;64.20;99231.19;4974264;28;20227;-79
2023/07/30 07:16:21;;;;;;;20.85;8.75;;;;;;;19.12;64.34;99227.91;4992132;28;20100;-79
2023/07/30 07:18:48;;;;;;;18.20;8.32;;;;;;;19.16;64.23;99231.09;4974699;28;20054;-79
2023/07/30 07:21:15;;;;;;;22.42;8.77;;;;;;;19.20;63.69;99231.63;4992339;28;20400;-79
2023/07/30 07:23:42;;;;;;;23.40;8.98;;;;;;;19.25;63.99;99229.34;4991632;28;20057;-79
2023/07/30 07:26:08;;;;;;;21.08;8.82;;;;;;;19.29;64.13;99227.19;4973705;28;20053;-79
2023/07/30 07:28:35;;;;;;;22.35;9.40;;;;;;;19.33;64.10;99229.38;4991316;28;20054;-79
2023/07/30 07:31:02;;;;;;;25.05;8.77;;;;;;;19.36;64.13;99238.91;4974814;28;20056;-79
2023/07/30 07:33:28;;;;;;;21.75;9.30;;;;;;;19.40;64.02;99235.75;4991591;28;20058;-80
2023/07/30 07:36:05;;;;;;;20.40;8.38;;;;;;;19.44;64.41;99243.44;4991545;28;20058;-79
2023/07/30 07:38:33;;;;;;;20.65;7.93;;;;;;;19.51;63.71;99244.50;4991540;28;20054;-79
2023/07/30 07:41:01;;;;;;;25.42;9.57;;;;;;;19.55;63.68;99251.16;4974356;28;20057;-79
2023/07/30 07:43:27;;;;;;;15.18;8.27;;;;;;;19.58;63.36;99252.72;4991741;28;20130;-79
2023/07/30 07:45:54;;;;;;;18.42;8.40;;;;;;;19.60;63.29;99251.56;4991503;28;20054;-79
2023/07/30 07:48:20;;;;;;;19.13;8.57;;;;;;;19.61;63.15;99255.91;4991451;28;20054;-80
2023/07/30 07:50:47;;;;;;;24.58;8.73;;;;;;;19.62;63.08;99251.41;4991620;28;20051;-79
2023/07/30 07:53:13;;;;;;;18.83;8.30;;;;;;;19.61;63.24;99252.38;4991477;28;20050;-79
2023/07/30 07:55:39;;;;;;;19.30;8.75;;;;;;;19.61;63.33;99253.22;4990881;28;20061;-79
2023/07/30 07:58:06;;;;;;;20.92;8.55;;;;;;;19.62;63.30;99254.88;4991515;28;20050;-82
2023/07/30 08:00:32;;;;;;;20.92;8.82;;;;;;;19.63;63.52;99259.22;4991659;28;20058;-82
2023/07/30 08:02:59;;;;;;;18.25;8.68;;;;;;;19.66;63.40;99255.41;4974235;28;20058;-82
2023/07/30 08:05:32;;;;;;;20.40;8.95;;;;;;;19.65;63.38;99253.72;4990915;28;20054;-88
2023/07/30 08:07:58;;;;;;;19.77;8.15;;;;;;;19.71;62.97;99249.59;4973740;28;20050;-80
2023/07/30 08:10:25;;;;;;;20.75;8.52;;;;;;;19.72;63.02;99252.09;5013670;23;20067;-75
2023/07/30 08:12:51;;;;;;;16.10;8.23;;;;;;;19.74;63.19;99257.28;4992496;28;20058;-75
2023/07/30 08:15:18;;;;;;;18.75;8.23;;;;;;;19.74;63.08;99246.63;4991797;28;20054;-75
2023/07/30 08:17:45;;;;;;;23.33;8.27;;;;;;;19.74;63.10;99252.78;4991135;28;20055;-76
2023/07/30 08:20:11;;;;;;;17.35;7.97;;;;;;;19.76;63.27;99247.28;4991717;28;20061;-76
2023/07/30 08:22:38;;;;;;;20.52;7.82;;;;;;;19.77;63.19;99249.78;4991391;28;20494;-76
2023/07/30 08:25:05;;;;;;;16.58;8.90;;;;;;;19.79;63.31;99252.31;4991349;28;20083;-75
2023/07/30 08:27:32;;;;;;;18.77;7.78;;;;;;;19.82;63.20;99257.34;4991736;28;20112;-76
2023/07/30 08:29:58;;;;;;;19.35;8.30;;;;;;;19.86;63.27;99244.47;4992032;28;20438;-76
2023/07/30 08:32:25;;;;;;;17.85;7.72;;;;;;;19.88;63.50;99256.69;4991863;28;20050;-76
2023/07/30 08:34:52;;;;;;;19.75;7.93;;;;;;;19.93;63.40;99254.34;4991421;28;20470;-76
2023/07/30 08:37:18;;;;;;;19.90;7.68;;;;;;;19.99;63.54;99252.06;4991272;28;20058;-76
2023/07/30 08:39:45;;;;;;;20.15;8.32;;;;;;;20.04;63.57;99257.78;4991694;28;20411;-75
2023/07/30 08:42:15;;;;;;;17.60;7.93;;;;;;;20.10;63.37;99253.59;4991769;28;20113;-75
2023/07/30 08:44:42;;;;;;;16.13;8.00;;;;;;;20.14;63.16;99253.13;4991623;28;20050;-75
2023/07/30 08:47:09;;;;;;;18.98;7.53;;;;;;;20.20;63.11;99250.81;4990874;28;20097;-76
2023/07/30 08:49:36;;;;;;;20.08;8.52;;;;;;;20.23;62.85;99250.47;4976076;28;20046;-76
2023/07/30 08:52:03;;;;;;;17.65;8.02;;;;;;;20.26;62.88;99253.66;4991544;28;20418;-76
2023/07/30 08:54:31;;;;;;;21.55;8.70;;;;;;;20.27;62.69;99254.50;4992013;28;20076;-75
2023/07/30 08:56:58;;;;;;;20.63;8.70;;;;;;;20.31;62.78;99253.19;4991180;28;20054;-75
2023/07/30 08:59:30;;;;;;;22.77;8.13;;;;;;;20.35;63.21;99254.53;4991623;28;20058;-76
2023/07/30 09:01:58;;;;;;;18.37;7.57;;;;;;;20.41;62.94;99258.38;4991747;28;20129;-75
2023/07/30 09:04:25;;;;;;;18.10;7.13;;;;;;;20.45;62.86;99262.41;4974171;28;20054;-75
2023/07/30 09:06:51;;;;;;;22.83;8.80;;;;;;;20.51;62.72;99260.88;4991771;28;20065;-75
2023/07/30 09:09:19;;;;;;;21.17;7.78;;;;;;;20.56;62.72;99258.56;4995300;28;20129;-75
2023/07/30 09:11:56;;;;;;;15.85;7.45;;;;;;;20.59;62.96;99262.75;4995556;28;20561;-75
2023/07/30 09:14:23;;;;;;;18.80;7.22;;;;;;;20.66;62.90;99264.59;4995473;28;20098;-75
2023/07/30 09:16:57;;;;;;;12.32;7.15;;;;;;;20.72;62.87;99268.44;4995089;28;20051;-75
2023/07/30 09:19:24;;;;;;;19.05;7.75;;;;;;;20.84;63.05;99266.28;4977725;28;20752;-75
2023/07/30 09:21:51;;;;;;;21.05;8.13;;;;;;;20.94;62.97;99274.19;4995420;28;20072;-76
2023/07/30 09:24:21;;;;;;;16.75;8.20;;;;;;;21.03;61.57;99272.31;4995088;28;20101;-75
2023/07/30 09:26:48;;;;;;;19.92;7.38;;;;;;;21.11;61.50;99266.97;4994959;28;20054;-76
2023/07/30 09:29:15;;;;;;;17.38;6.93;;;;;;;21.16;61.02;99261.94;4977771;28;20058;-76
2023/07/30 09:31:54;;;;;;;17.02;7.20;;;;;;;21.16;60.62;99277.19;4994419;28;20518;-76
2023/07/30 09:34:23;;;;;;;17.65;7.35;;;;;;;21.20;60.64;99270.47;4994970;28;20050;-76
2023/07/30 09:36:54;;;;;;;17.45;6.93;;;;;;;21.20;60.48;99270.47;4994919;28;20062;-76
2023/07/30 09:39:22;;;;;;;14.75;7.15;;;;;;;21.24;61.23;99265.63;4995064;28;20050;-76
2023/07/30 09:41:50;;;;;;;15.73;6.70;;;;;;;21.29;61.55;99265.94;4994724;28;20121;-76
2023/07/30 09:44:19;;;;;;;14.20;6.43;;;;;;;21.36;61.69;99266.94;4994661;28;20042;-76
2023/07/30 09:46:48;;;;;;;14.55;6.90;;;;;;;21.50;61.34;99264.56;4977234;28;20057;-75
2023/07/30 09:49:15;;;;;;;16.00;6.65;;;;;;;21.66;61.53;99274.41;4977684;28;20058;-76
2023/07/30 09:51:42;;;;;;;15.35;6.90;;;;;;;21.83;60.69;99267.19;4994463;28;20078;-75
2023/07/30 09:54:13;;;;;;;17.95;7.18;;;;;;;21.96;59.54;99261.25;4994445;28;20053;-76
2023/07/30 09:56:41;;;;;;;14.13;5.65;;;;;;;22.10;59.75;99259.69;4994201;28;20050;-76
2023/07/30 09:59:08;;;;;;;15.95;6.15;;;;;;;22.20;59.81;99257.63;4994754;28;20047;-75
2023/07/30 10:01:41;;;;;;;15.02;5.47;;;;;;;22.28;58.31;99264.81;4994043;28;20429;-75
2023/07/30 10:04:09;;;;;;;12.40;5.13;;;;;;;22.39;58.67;99269.75;4994653;28;20052;-75
2023/07/30 10:06:57;;;;;;;11.82;4.50;;;;;;;22.44;58.12;99271.06;4994021;28;20174;-75
2023/07/30 10:09:29;;;;;;;8.32;4.28;;;;;;;22.56;58.02;99271.50;4994281;28;20051;-75
2023/07/30 10:11:58;;;;;;;11.60;4.50;;;;;;;22.67;57.74;99265.75;4994074;28;20054;-75
2023/07/30 10:14:25;;;;;;;9.00;3.70;;;;;;;22.78;57.53;99270.69;4993743;28;20521;-76
2023/07/30 10:16:54;;;;;;;14.93;4.00;;;;;;;22.89;56.82;99263.22;4994054;28;20061;-76
2023/07/30 10:19:26;;;;;;;10.32;4.03;;;;;;;22.98;56.59;99269.34;4993087;28;20043;-76
2023/07/30 10:22:18;;;;;;;9.95;4.13;;;;;;;23.03;56.44;99273.16;4994012;28;20058;-76
2023/07/30 10:24:55;;;;;;;10.57;3.60;;;;;;;23.19;56.07;99257.09;4993741;28;20050;-76
2023/07/30 10:27:36;;;;;;;9.75;4.20;;;;;;;23.31;55.51;99261.00;4976700;28;20309;-75
2023/07/30 10:30:09;;;;;;;6.32;2.90;;;;;;;23.38;54.79;99259.28;4994064;28;20069;-75
2023/07/30 10:32:56;;;;;;;8.25;3.38;;;;;;;23.42;54.17;99259.75;4994107;28;20055;-76
2023/07/30 10:35:39;;;;;;;11.50;3.15;;;;;;;23.44;53.42;99263.09;4976768;28;20507;-75
2023/07/30 10:38:27;;;;;;;8.10;2.60;;;;;;;23.44;53.06;99271.16;4993176;28;20073;-76
2023/07/30 10:41:12;;;;;;;6.03;2.72;;;;;;;23.46;53.29;99255.66;4993860;28;20089;-75
2023/07/30 10:43:51;;;;;;;6.93;2.58;;;;;;;23.52;53.44;99254.09;4993608;28;20054;-75
2023/07/30 10:46:19;;;;;;;8.85;2.65;;;;;;;23.63;54.10;99255.50;4993255;28;20050;-76
2023/07/30 10:48:47;;;;;;;8.00;2.55;;;;;;;23.72;53.66;99257.06;4993524;28;20466;-76
2023/07/30 10:51:16;;;;;;;7.00;2.70;;;;;;;23.85;53.31;99255.56;4993767;28;20093;-75
2023/07/30 10:53:50;;;;;;;7.00;2.53;;;;;;;23.95;51.33;99251.56;4993596;28;20054;-76
2023/07/30 10:56:21;;;;;;;10.60;2.53;;;;;;;24.08;51.92;99258.97;4993234;28;20054;-76
2023/07/30 10:58:52;;;;;;;7.00;2.70;;;;;;;24.14;51.47;99243.16;4993024;28;20042;-76
2023/07/30 11:01:19;;;;;;;4.47;2.10;;;;;;;24.19;51.12;99248.78;4993436;28;20085;-77
2023/07/30 11:03:51;;;;;;;8.40;2.20;;;;;;;24.12;49.82;99247.88;4993510;28;20050;-76
2023/07/30 11:06:23;;;;;;;10.18;2.78;;;;;;;24.03;49.98;99244.44;4993268;28;20047;-76
2023/07/30 11:08:49;;;;;;;6.50;2.17;;;;;;;23.95;50.65;99256.09;4993120;28;20054;-75
2023/07/30 11:11:16;;;;;;;7.10;2.10;;;;;;;23.88;51.09;99256.03;4993086;28;20050;-75
2023/07/30 11:13:46;;;;;;;5.57;2.28;;;;;;;23.86;51.33;99266.16;4993146;28;20443;-75
2023/07/30 11:16:14;;;;;;;6.80;2.10;;;;;;;23.91;51.24;99257.50;4993106;28;20058;-76
2023/07/30 11:18:42;;;;;;;7.50;2.25;;;;;;;24.00;51.40;99259.06;4993126;28;20427;-76
2023/07/30 11:21:11;;;;;;;5.88;2.10;;;;;;;24.17;51.97;99254.34;4992810;28;20092;-78
2023/07/30 11:23:39;;;;;;;11.50;2.35;;;;;;;24.44;51.80;99260.00;4993121;28;20050;-76
2023/07/30 11:26:07;;;;;;;4.32;1.85;;;;;;;24.73;51.53;99258.22;4992707;28;20414;-76
2023/07/30 11:28:38;;;;;;;8.20;2.13;;;;;;;25.00;50.16;99237.97;4992719;28;20058;-76
2023/07/30 11:31:12;;;;;;;7.70;2.20;;;;;;;25.22;49.08;99246.84;4992421;28;20133;-75